createdAt,value
2017-02-23T00:00:45.183Z,994.07
2017-02-23T00:01:45.121Z,994.08
2017-02-23T00:02:45.063Z,994.15
2017-02-23T00:03:44.998Z,994.12
2017-02-23T00:04:44.937Z,994.12
2017-02-23T00:05:44.873Z,994.17
2017-02-23T00:06:44.811Z,994.14
2017-02-23T00:07:44.748Z,994.09
2017-02-23T00:08:44.686Z,994.04
2017-02-23T00:09:44.624Z,994.07
2017-02-23T00:10:44.564Z,994.1
2017-02-23T00:11:44.499Z,994.07
2017-02-23T00:12:44.438Z,994.03
2017-02-23T00:13:44.375Z,994.02
2017-02-23T00:14:44.313Z,994.03
2017-02-23T00:15:44.250Z,994.05
2017-02-23T00:16:44.188Z,994
2017-02-23T00:17:44.126Z,993.99
2017-02-23T00:18:44.066Z,994.03
2017-02-23T00:19:44.003Z,994.04
2017-02-23T00:20:43.941Z,994.03
2017-02-23T00:21:43.879Z,993.99
2017-02-23T00:22:43.815Z,994.01
2017-02-23T00:23:43.752Z,994.04
2017-02-23T00:24:43.692Z,994.09
2017-02-23T00:25:43.628Z,994.11
2017-02-23T00:26:43.567Z,994.15
2017-02-23T00:27:43.504Z,994.08
2017-02-23T00:28:43.443Z,994.09
2017-02-23T00:29:43.380Z,994.1
2017-02-23T00:30:43.318Z,994.12
2017-02-23T00:31:43.255Z,994.13
2017-02-23T00:32:43.195Z,994.1
2017-02-23T00:33:43.132Z,994.15
2017-02-23T00:34:43.069Z,994.13
2017-02-23T00:35:43.009Z,994.15
2017-02-23T00:36:42.946Z,994.2
2017-02-23T00:37:42.882Z,994.19
2017-02-23T00:38:42.823Z,994.12
2017-02-23T00:39:42.759Z,994.14
2017-02-23T00:40:42.696Z,994.13
2017-02-23T00:41:42.633Z,994.08
2017-02-23T00:42:42.574Z,994.16
2017-02-23T00:43:42.509Z,994.15
2017-02-23T00:44:42.448Z,994.17
2017-02-23T00:45:42.386Z,994.22
2017-02-23T00:46:42.323Z,994.2
2017-02-23T00:47:42.262Z,994.14
2017-02-23T00:48:42.200Z,994.19
2017-02-23T00:49:42.141Z,994.17
2017-02-23T00:50:42.077Z,994.18
2017-02-23T00:51:42.016Z,994.21
2017-02-23T00:52:41.951Z,994.21
2017-02-23T00:53:41.891Z,994.15
2017-02-23T00:54:41.828Z,994.16
2017-02-23T00:55:41.765Z,994.19
2017-02-23T00:56:41.703Z,994.14
2017-02-23T00:57:41.641Z,994.2
2017-02-23T00:58:41.580Z,994.19
2017-02-23T00:59:41.519Z,994.21
2017-02-23T01:01:10.831Z,994.28
2017-02-23T01:02:10.761Z,994.25
2017-02-23T01:03:10.699Z,994.27
2017-02-23T01:04:10.636Z,994.26
2017-02-23T01:05:10.575Z,994.26
2017-02-23T01:06:10.513Z,994.22
2017-02-23T01:07:10.451Z,994.22
2017-02-23T01:08:10.388Z,994.15
2017-02-23T01:09:10.326Z,994.2
2017-02-23T01:10:10.564Z,994.13
2017-02-23T01:11:10.201Z,994.17
2017-02-23T01:12:10.141Z,994.12
2017-02-23T01:13:10.077Z,994.12
2017-02-23T01:14:10.015Z,994.13
2017-02-23T01:15:09.951Z,994.07
2017-02-23T01:16:09.888Z,994.09
2017-02-23T01:17:09.827Z,994.08
2017-02-23T01:18:09.765Z,994.07
2017-02-23T01:19:09.704Z,994.07
2017-02-23T01:20:09.641Z,994.14
2017-02-23T01:21:09.578Z,994.17
2017-02-23T01:22:09.515Z,994.2
2017-02-23T01:23:09.458Z,994.11
2017-02-23T01:24:09.403Z,994.18
2017-02-23T01:25:09.329Z,994.14
2017-02-23T01:26:09.269Z,994.18
2017-02-23T01:27:09.206Z,994.11
2017-02-23T01:28:09.144Z,994.16
2017-02-23T01:29:09.081Z,994.1
2017-02-23T01:30:09.017Z,994.14
2017-02-23T01:31:08.956Z,994.11
2017-02-23T01:32:08.894Z,994.12
2017-02-23T01:33:08.833Z,994.09
2017-02-23T01:34:08.769Z,994.12
2017-02-23T01:35:08.707Z,994.11
2017-02-23T01:36:08.645Z,994.08
2017-02-23T01:37:08.582Z,994.1
2017-02-23T01:38:08.520Z,994.15
2017-02-23T01:39:08.459Z,994.14
2017-02-23T01:40:08.397Z,994.1
2017-02-23T01:41:08.336Z,994.11
2017-02-23T01:42:08.273Z,994.11
2017-02-23T01:43:08.209Z,994.14
2017-02-23T01:44:08.148Z,994.13
2017-02-23T01:45:08.085Z,994.1
2017-02-23T01:46:08.025Z,994.11
2017-02-23T01:47:07.968Z,994.09
2017-02-23T01:48:07.900Z,994.08
2017-02-23T01:49:07.838Z,994.05
2017-02-23T01:50:07.774Z,994.07
2017-02-23T01:51:07.715Z,994.06
2017-02-23T01:52:07.652Z,994.08
2017-02-23T01:53:07.590Z,994.03
2017-02-23T01:54:07.527Z,994.08
2017-02-23T01:55:07.467Z,994.04
2017-02-23T01:56:07.402Z,994.03
2017-02-23T01:57:07.339Z,994.03
2017-02-23T01:58:07.276Z,994.05
2017-02-23T01:59:07.217Z,994.04
2017-02-23T02:00:07.154Z,994.01
2017-02-23T02:01:07.093Z,994.08
2017-02-23T02:02:07.031Z,994.06
2017-02-23T02:03:06.968Z,994.03
2017-02-23T02:04:06.921Z,993.98
2017-02-23T02:05:06.844Z,994
2017-02-23T02:06:06.779Z,993.99
2017-02-23T02:07:06.718Z,993.95
2017-02-23T02:08:06.657Z,993.95
2017-02-23T02:09:06.595Z,993.98
2017-02-23T02:10:06.531Z,993.98
2017-02-23T02:11:06.470Z,993.99
2017-02-23T02:12:06.407Z,993.95
2017-02-23T02:13:06.347Z,993.89
2017-02-23T02:14:06.283Z,993.9
2017-02-23T02:15:06.221Z,993.89
2017-02-23T02:16:06.161Z,993.89
2017-02-23T02:17:06.097Z,993.88
2017-02-23T02:18:06.034Z,993.85
2017-02-23T02:19:05.974Z,993.83
2017-02-23T02:20:05.911Z,993.84
2017-02-23T02:21:05.849Z,993.82
2017-02-23T02:22:05.791Z,993.86
2017-02-23T02:23:05.724Z,993.9
2017-02-23T02:24:05.663Z,993.88
2017-02-23T02:25:05.601Z,993.88
2017-02-23T02:26:05.539Z,993.89
2017-02-23T02:27:05.477Z,993.88
2017-02-23T02:28:05.414Z,993.82
2017-02-23T02:29:05.352Z,993.88
2017-02-23T02:30:05.290Z,993.87
2017-02-23T02:31:05.230Z,993.87
2017-02-23T02:32:05.165Z,993.86
2017-02-23T02:33:05.105Z,993.85
2017-02-23T02:34:05.043Z,993.9
2017-02-23T02:35:04.985Z,993.83
2017-02-23T02:36:04.920Z,993.88
2017-02-23T02:37:04.856Z,993.9
2017-02-23T02:38:04.794Z,993.95
2017-02-23T02:39:04.731Z,993.89
2017-02-23T02:40:04.671Z,993.9
2017-02-23T02:41:04.609Z,993.94
2017-02-23T02:42:04.547Z,993.95
2017-02-23T02:43:04.484Z,993.9
2017-02-23T02:44:04.427Z,993.94
2017-02-23T02:45:04.360Z,993.96
2017-02-23T02:46:04.298Z,993.94
2017-02-23T02:47:04.238Z,993.89
2017-02-23T02:48:04.177Z,993.95
2017-02-23T02:49:04.111Z,993.94
2017-02-23T02:50:04.048Z,994.01
2017-02-23T02:51:03.986Z,994.01
2017-02-23T02:52:03.925Z,994.01
2017-02-23T02:53:03.863Z,993.96
2017-02-23T02:54:03.800Z,993.99
2017-02-23T02:55:03.743Z,993.98
2017-02-23T02:56:03.678Z,993.96
2017-02-23T02:57:03.612Z,993.95
2017-02-23T02:58:03.551Z,993.97
2017-02-23T02:59:03.492Z,993.9
2017-02-23T03:00:03.428Z,993.93
2017-02-23T03:01:03.365Z,993.93
2017-02-23T03:02:03.304Z,993.93
2017-02-23T03:03:03.244Z,993.89
2017-02-23T03:04:03.181Z,993.83
2017-02-23T03:05:03.121Z,993.83
2017-02-23T03:06:03.055Z,993.89
2017-02-23T03:07:02.993Z,993.89
2017-02-23T03:08:02.932Z,993.91
2017-02-23T03:09:02.869Z,993.89
2017-02-23T03:10:02.808Z,993.9
2017-02-23T03:11:02.748Z,993.89
2017-02-23T03:12:02.683Z,993.89
2017-02-23T03:13:02.621Z,993.91
2017-02-23T03:14:02.559Z,993.96
2017-02-23T03:15:02.500Z,993.89
2017-02-23T03:16:02.435Z,993.88
2017-02-23T03:17:02.372Z,993.92
2017-02-23T03:18:02.311Z,993.96
2017-02-23T03:19:02.247Z,993.94
2017-02-23T03:20:02.186Z,993.97
2017-02-23T03:21:02.125Z,993.94
2017-02-23T03:22:02.064Z,993.99
2017-02-23T03:23:02.027Z,993.96
2017-02-23T03:24:01.939Z,994
2017-02-23T03:25:01.885Z,993.98
2017-02-23T03:26:01.815Z,994.01
2017-02-23T03:27:01.752Z,994.02
2017-02-23T03:28:01.689Z,994
2017-02-23T03:29:01.652Z,994.04
2017-02-23T03:30:01.566Z,994.06
2017-02-23T03:31:01.503Z,994.06
2017-02-23T03:32:01.441Z,993.98
2017-02-23T03:33:01.381Z,994.07
2017-02-23T03:34:01.316Z,994.04
2017-02-23T03:35:01.266Z,994.03
2017-02-23T03:36:01.193Z,994.07
2017-02-23T03:37:01.133Z,993.99
2017-02-23T03:38:01.068Z,994.02
2017-02-23T03:39:01.007Z,994.04
2017-02-23T03:40:00.972Z,994.06
2017-02-23T03:41:00.881Z,994.08
2017-02-23T03:42:00.819Z,994.05
2017-02-23T03:43:00.759Z,994.11
2017-02-23T03:44:00.697Z,994.08
2017-02-23T03:45:00.633Z,994.08
2017-02-23T03:46:00.571Z,994.08
2017-02-23T03:47:00.510Z,994.04
2017-02-23T03:48:00.448Z,994.03
2017-02-23T03:49:00.386Z,994.01
2017-02-23T03:50:00.326Z,994.04
2017-02-23T03:51:00.262Z,993.99
2017-02-23T03:52:00.199Z,994.04
2017-02-23T03:53:00.137Z,994.04
2017-02-23T03:54:00.074Z,994.02
2017-02-23T03:55:00.014Z,994.01
2017-02-23T03:55:59.950Z,994.1
2017-02-23T03:56:59.889Z,994.02
2017-02-23T03:57:59.828Z,994.04
2017-02-23T03:58:59.766Z,993.96
2017-02-23T03:59:59.702Z,993.97
2017-02-23T04:00:59.640Z,994.01
2017-02-23T04:01:59.578Z,993.99
2017-02-23T04:02:59.516Z,994.01
2017-02-23T04:03:59.454Z,994.05
2017-02-23T04:04:59.392Z,994.04
2017-02-23T04:05:59.331Z,994.03
2017-02-23T04:06:59.267Z,994.06
2017-02-23T04:07:59.207Z,994.07
2017-02-23T04:08:59.144Z,994.07
2017-02-23T04:09:59.082Z,994.05
2017-02-23T04:10:59.020Z,994.03
2017-02-23T04:11:58.960Z,994.18
2017-02-23T04:12:58.896Z,994.12
2017-02-23T04:13:58.835Z,994.07
2017-02-23T04:14:58.773Z,994.09
2017-02-23T04:15:58.710Z,994.05
2017-02-23T04:16:58.648Z,994.09
2017-02-23T04:17:58.586Z,994.06
2017-02-23T04:18:58.524Z,994.12
2017-02-23T04:19:58.461Z,994.11
2017-02-23T04:20:58.400Z,994.03
2017-02-23T04:21:58.339Z,994.05
2017-02-23T04:22:58.283Z,994.07
2017-02-23T04:23:58.215Z,994.09
2017-02-23T04:24:58.151Z,994.08
2017-02-23T04:25:58.089Z,994.08
2017-02-23T04:26:58.027Z,994.03
2017-02-23T04:27:57.966Z,994.01
2017-02-23T04:28:57.902Z,994
2017-02-23T04:29:57.841Z,994.02
2017-02-23T04:30:57.778Z,994.05
2017-02-23T04:31:57.719Z,994.06
2017-02-23T04:32:57.654Z,994.05
2017-02-23T04:33:57.592Z,994.03
2017-02-23T04:34:57.532Z,994.06
2017-02-23T04:35:57.468Z,994.07
2017-02-23T04:36:57.406Z,994
2017-02-23T04:37:57.343Z,994.03
2017-02-23T04:38:57.283Z,994.02
2017-02-23T04:39:57.221Z,994.05
2017-02-23T04:40:57.157Z,994.03
2017-02-23T04:41:57.095Z,994.06
2017-02-23T04:42:57.033Z,994.09
2017-02-23T04:43:56.972Z,994.1
2017-02-23T04:44:56.910Z,994.07
2017-02-23T04:45:56.848Z,994.08
2017-02-23T04:46:56.785Z,994.09
2017-02-23T04:47:56.724Z,994.09
2017-02-23T04:48:56.661Z,994.07
2017-02-23T04:49:56.598Z,994.1
2017-02-23T04:50:56.536Z,994.13
2017-02-23T04:51:56.475Z,994.12
2017-02-23T04:52:56.412Z,994.17
2017-02-23T04:53:56.349Z,994.16
2017-02-23T04:54:56.288Z,994.2
2017-02-23T04:55:56.226Z,994.19
2017-02-23T04:56:56.163Z,994.1
2017-02-23T04:57:56.103Z,994.08
2017-02-23T04:58:56.038Z,994.17
2017-02-23T04:59:55.977Z,994.18
2017-02-23T05:00:55.916Z,994.74
2017-02-23T05:01:55.858Z,994.73
2017-02-23T05:02:55.791Z,994.51
2017-02-23T05:03:55.730Z,994.57
2017-02-23T05:04:55.669Z,994.56
2017-02-23T05:05:55.604Z,994.6
2017-02-23T05:06:55.543Z,994.6
2017-02-23T05:07:55.481Z,994.62
2017-02-23T05:08:55.418Z,994.67
2017-02-23T05:09:55.356Z,994.65
2017-02-23T05:10:55.294Z,994.64
2017-02-23T05:11:55.232Z,994.61
2017-02-23T05:12:55.169Z,994.64
2017-02-23T05:13:55.105Z,994.63
2017-02-23T05:14:55.043Z,994.64
2017-02-23T05:15:54.984Z,994.64
2017-02-23T05:16:54.922Z,994.61
2017-02-23T05:17:54.859Z,994.62
2017-02-23T05:18:54.798Z,994.6
2017-02-23T05:19:54.735Z,994.63
2017-02-23T05:20:54.674Z,994.61
2017-02-23T05:21:54.610Z,994.58
2017-02-23T05:22:54.548Z,994.53
2017-02-23T05:23:54.486Z,994.51
2017-02-23T05:24:54.425Z,994.5
2017-02-23T05:25:54.361Z,994.5
2017-02-23T05:26:54.300Z,994.53
2017-02-23T05:27:54.237Z,994.53
2017-02-23T05:28:54.177Z,994.5
2017-02-23T05:29:54.113Z,994.54
2017-02-23T05:30:54.051Z,994.52
2017-02-23T05:31:53.988Z,994.51
2017-02-23T05:32:53.927Z,994.51
2017-02-23T05:33:53.866Z,994.55
2017-02-23T05:34:53.802Z,994.54
2017-02-23T05:35:53.741Z,994.56
2017-02-23T05:36:53.678Z,994.59
2017-02-23T05:37:53.616Z,994.58
2017-02-23T05:38:53.554Z,994.56
2017-02-23T05:39:53.492Z,994.57
2017-02-23T05:40:53.430Z,994.54
2017-02-23T05:41:53.367Z,994.53
2017-02-23T05:42:53.306Z,994.54
2017-02-23T05:43:53.245Z,994.52
2017-02-23T05:44:53.181Z,994.55
2017-02-23T05:45:53.121Z,994.51
2017-02-23T05:46:53.062Z,994.55
2017-02-23T05:47:52.997Z,994.4
2017-02-23T05:48:52.934Z,994.39
2017-02-23T05:49:52.870Z,994.37
2017-02-23T05:50:52.813Z,994.33
2017-02-23T05:51:52.753Z,994.38
2017-02-23T05:52:52.686Z,994.4
2017-02-23T05:53:52.624Z,994.4
2017-02-23T05:54:52.562Z,994.37
2017-02-23T05:55:52.498Z,994.42
2017-02-23T05:56:52.436Z,994.38
2017-02-23T05:57:52.376Z,994.4
2017-02-23T05:58:52.315Z,994.4
2017-02-23T05:59:52.251Z,994.43
2017-02-23T06:00:52.190Z,994.42
2017-02-23T06:01:52.126Z,994.45
2017-02-23T06:02:52.064Z,994.43
2017-02-23T06:03:52.001Z,994.4
2017-02-23T06:04:51.941Z,994.4
2017-02-23T06:05:51.879Z,994.38
2017-02-23T06:06:51.815Z,994.36
2017-02-23T06:07:51.753Z,994.4
2017-02-23T06:08:51.691Z,994.39
2017-02-23T06:09:51.629Z,994.41
2017-02-23T06:10:51.566Z,994.41
2017-02-23T06:11:51.506Z,994.37
2017-02-23T06:12:51.443Z,994.39
2017-02-23T06:13:51.382Z,994.41
2017-02-23T06:14:51.319Z,994.44
2017-02-23T06:15:51.255Z,994.4
2017-02-23T06:16:51.194Z,994.42
2017-02-23T06:17:51.131Z,994.39
2017-02-23T06:18:51.069Z,994.44
2017-02-23T06:19:51.007Z,994.45
2017-02-23T06:20:50.947Z,994.46
2017-02-23T06:21:50.883Z,994.45
2017-02-23T06:22:50.822Z,994.45
2017-02-23T06:23:50.759Z,994.52
2017-02-23T06:24:50.700Z,994.49
2017-02-23T06:25:50.634Z,994.51
2017-02-23T06:26:50.572Z,994.51
2017-02-23T06:27:50.535Z,994.51
2017-02-23T06:28:50.449Z,994.56
2017-02-23T06:29:50.387Z,994.57
2017-02-23T06:30:50.323Z,994.53
2017-02-23T06:31:50.262Z,994.54
2017-02-23T06:32:50.199Z,994.5
2017-02-23T06:33:50.139Z,994.5
2017-02-23T06:34:50.076Z,994.53
2017-02-23T06:35:50.015Z,994.56
2017-02-23T06:36:49.953Z,994.57
2017-02-23T06:37:49.889Z,994.57
2017-02-23T06:38:49.827Z,994.52
2017-02-23T06:39:49.765Z,994.57
2017-02-23T06:40:49.704Z,994.56
2017-02-23T06:41:49.640Z,994.6
2017-02-23T06:42:49.581Z,994.51
2017-02-23T06:43:49.517Z,994.57
2017-02-23T06:44:49.454Z,994.53
2017-02-23T06:45:49.393Z,994.53
2017-02-23T06:46:49.331Z,994.53
2017-02-23T06:47:49.268Z,994.54
2017-02-23T06:48:49.206Z,994.58
2017-02-23T06:49:49.147Z,994.56
2017-02-23T06:50:49.081Z,994.6
2017-02-23T06:51:49.020Z,994.59
2017-02-23T06:52:48.957Z,994.58
2017-02-23T06:53:48.896Z,994.58
2017-02-23T06:54:48.833Z,994.59
2017-02-23T06:55:48.769Z,994.59
2017-02-23T06:56:48.708Z,994.59
2017-02-23T06:57:48.647Z,994.59
2017-02-23T06:58:48.584Z,994.61
2017-02-23T06:59:48.522Z,994.63
2017-02-23T07:00:48.461Z,994.67
2017-02-23T07:01:48.396Z,994.63
2017-02-23T07:02:48.335Z,994.63
2017-02-23T07:03:48.272Z,994.62
2017-02-23T07:04:48.209Z,994.62
2017-02-23T07:05:48.147Z,994.66
2017-02-23T07:06:48.085Z,994.61
2017-02-23T07:07:48.025Z,994.63
2017-02-23T07:08:47.964Z,994.65
2017-02-23T07:09:47.900Z,994.66
2017-02-23T07:10:47.837Z,994.63
2017-02-23T07:11:47.775Z,994.62
2017-02-23T07:12:47.712Z,994.66
2017-02-23T07:13:47.650Z,994.64
2017-02-23T07:14:47.589Z,994.69
2017-02-23T07:15:47.528Z,994.65
2017-02-23T07:16:47.465Z,994.64
2017-02-23T07:17:47.403Z,994.7
2017-02-23T07:18:47.340Z,994.7
2017-02-23T07:19:47.279Z,994.69
2017-02-23T07:20:47.219Z,994.67
2017-02-23T07:21:47.154Z,994.63
2017-02-23T07:22:47.094Z,994.64
2017-02-23T07:23:47.036Z,994.62
2017-02-23T07:24:46.970Z,994.66
2017-02-23T07:25:46.907Z,994.65
2017-02-23T07:26:46.844Z,994.62
2017-02-23T07:27:46.780Z,994.62
2017-02-23T07:28:46.718Z,994.63
2017-02-23T07:29:46.658Z,994.58
2017-02-23T07:30:46.594Z,994.58
2017-02-23T07:31:46.534Z,994.59
2017-02-23T07:32:46.469Z,994.57
2017-02-23T07:33:46.408Z,994.5
2017-02-23T07:34:46.346Z,994.55
2017-02-23T07:35:46.284Z,994.52
2017-02-23T07:36:46.220Z,994.54
2017-02-23T07:37:46.159Z,994.51
2017-02-23T07:38:46.095Z,994.46
2017-02-23T07:39:46.036Z,994.54
2017-02-23T07:40:45.973Z,994.51
2017-02-23T07:41:45.911Z,994.54
2017-02-23T07:42:45.848Z,994.51
2017-02-23T07:43:45.787Z,994.53
2017-02-23T07:44:45.726Z,994.5
2017-02-23T07:45:45.662Z,994.58
2017-02-23T07:46:45.600Z,994.56
2017-02-23T07:47:45.537Z,994.51
2017-02-23T07:48:45.476Z,994.56
2017-02-23T07:49:45.413Z,994.57
2017-02-23T07:50:45.350Z,994.54
2017-02-23T07:51:45.290Z,994.5
2017-02-23T07:52:45.225Z,994.49
2017-02-23T07:53:45.191Z,994.5
2017-02-23T07:54:45.102Z,994.49
2017-02-23T07:55:45.042Z,994.49
2017-02-23T07:56:44.979Z,994.44
2017-02-23T07:57:44.918Z,994.45
2017-02-23T07:58:44.855Z,994.39
2017-02-23T07:59:44.791Z,994.43
2017-02-23T08:00:44.731Z,994.47
2017-02-23T08:01:44.667Z,994.42
2017-02-23T08:02:44.605Z,994.43
2017-02-23T08:03:44.543Z,994.44
2017-02-23T08:04:44.481Z,994.46
2017-02-23T08:05:44.418Z,994.43
2017-02-23T08:06:44.359Z,994.46
2017-02-23T08:07:44.299Z,994.43
2017-02-23T08:08:44.234Z,994.43
2017-02-23T08:09:44.170Z,994.41
2017-02-23T08:10:44.109Z,994.32
2017-02-23T08:11:44.045Z,994.39
2017-02-23T08:12:43.983Z,994.31
2017-02-23T08:13:43.923Z,994.34
2017-02-23T08:14:43.867Z,994.35
2017-02-23T08:15:43.797Z,994.31
2017-02-23T08:16:43.736Z,994.32
2017-02-23T08:17:43.675Z,994.33
2017-02-23T08:18:43.611Z,994.35
2017-02-23T08:19:43.549Z,994.31
2017-02-23T08:20:43.488Z,994.32
2017-02-23T08:21:43.425Z,994.31
2017-02-23T08:22:43.363Z,994.27
2017-02-23T08:23:43.300Z,994.26
2017-02-23T08:24:43.240Z,994.22
2017-02-23T08:25:43.177Z,994.23
2017-02-23T08:26:43.116Z,994.19
2017-02-23T08:27:43.054Z,994.18
2017-02-23T08:28:42.990Z,994.15
2017-02-23T08:29:42.939Z,994.14
2017-02-23T08:30:42.868Z,994.12
2017-02-23T08:31:42.806Z,994.11
2017-02-23T08:32:42.762Z,994.11
2017-02-23T08:33:42.748Z,994.14
2017-02-23T08:34:42.617Z,994.06
2017-02-23T08:35:42.556Z,994.08
2017-02-23T08:36:42.493Z,994.09
2017-02-23T08:37:42.431Z,994.07
2017-02-23T08:38:42.370Z,994.05
2017-02-23T08:39:42.308Z,994.07
2017-02-23T08:40:42.497Z,994.09
2017-02-23T08:41:42.185Z,994.08
2017-02-23T08:42:42.122Z,994.08
2017-02-23T08:43:42.059Z,994.04
2017-02-23T08:44:41.998Z,994.06
2017-02-23T08:45:41.935Z,994.09
2017-02-23T08:46:41.875Z,994.09
2017-02-23T08:47:41.812Z,994.05
2017-02-23T08:48:41.749Z,994.07
2017-02-23T08:49:41.689Z,994.09
2017-02-23T08:50:41.626Z,994.05
2017-02-23T08:51:41.563Z,994.08
2017-02-23T08:52:41.504Z,994.06
2017-02-23T08:53:41.440Z,994.09
2017-02-23T08:54:41.378Z,994.05
2017-02-23T08:55:41.316Z,994.02
2017-02-23T08:56:41.255Z,994.03
2017-02-23T08:57:41.193Z,993.99
2017-02-23T08:58:41.130Z,994.06
2017-02-23T08:59:41.071Z,994.03
2017-02-23T09:00:41.074Z,994.03
2017-02-23T09:01:40.975Z,994.01
2017-02-23T09:02:40.922Z,994.02
2017-02-23T09:03:40.821Z,994.02
2017-02-23T09:04:40.758Z,994.03
2017-02-23T09:05:40.697Z,993.98
2017-02-23T09:06:40.634Z,994.01
2017-02-23T09:07:40.576Z,994.04
2017-02-23T09:08:40.513Z,994.04
2017-02-23T09:09:40.449Z,994
2017-02-23T09:10:40.386Z,994.04
2017-02-23T09:11:40.325Z,994.06
2017-02-23T09:12:40.266Z,994.03
2017-02-23T09:13:40.200Z,994.02
2017-02-23T09:14:40.138Z,993.99
2017-02-23T09:15:40.331Z,993.97
2017-02-23T09:16:40.020Z,994
2017-02-23T09:17:39.952Z,994
2017-02-23T09:18:39.919Z,994.01
2017-02-23T09:19:39.843Z,993.98
2017-02-23T09:20:39.867Z,993.97
2017-02-23T09:21:39.706Z,993.92
2017-02-23T09:22:39.642Z,993.92
2017-02-23T09:23:39.581Z,993.92
2017-02-23T09:24:39.523Z,993.91
2017-02-23T09:25:39.706Z,993.92
2017-02-23T09:26:39.400Z,993.91
2017-02-23T09:27:39.332Z,993.87
2017-02-23T09:28:39.270Z,993.87
2017-02-23T09:29:39.207Z,993.88
2017-02-23T09:30:39.148Z,993.84
2017-02-23T09:31:39.085Z,993.86
2017-02-23T09:32:39.024Z,993.84
2017-02-23T09:33:38.961Z,993.89
2017-02-23T09:34:38.903Z,993.89
2017-02-23T09:35:38.838Z,993.89
2017-02-23T09:36:38.774Z,993.9
2017-02-23T09:37:38.713Z,993.86
2017-02-23T09:38:38.650Z,993.86
2017-02-23T09:39:38.590Z,993.82
2017-02-23T09:40:38.535Z,993.79
2017-02-23T09:41:38.465Z,993.8
2017-02-23T09:42:38.402Z,993.77
2017-02-23T09:43:38.341Z,993.77
2017-02-23T09:44:38.279Z,993.75
2017-02-23T09:45:38.218Z,993.72
2017-02-23T09:46:38.154Z,993.73
2017-02-23T09:47:38.094Z,993.7
2017-02-23T09:48:38.032Z,993.71
2017-02-23T09:49:37.968Z,993.68
2017-02-23T09:50:37.907Z,993.7
2017-02-23T09:51:37.844Z,993.68
2017-02-23T09:52:37.783Z,993.66
2017-02-23T09:53:37.720Z,993.66
2017-02-23T09:54:37.680Z,993.66
2017-02-23T09:55:37.676Z,993.64
2017-02-23T09:56:37.534Z,993.81
2017-02-23T09:57:37.473Z,993.58
2017-02-23T09:58:37.410Z,993.65
2017-02-23T09:59:37.348Z,993.67
2017-02-23T10:00:37.286Z,993.66
2017-02-23T10:01:37.223Z,993.64
2017-02-23T10:02:37.162Z,993.67
2017-02-23T10:03:37.101Z,993.69
2017-02-23T10:04:37.039Z,993.68
2017-02-23T10:05:36.976Z,993.71
2017-02-23T10:06:36.913Z,993.67
2017-02-23T10:07:36.852Z,993.65
2017-02-23T10:08:36.791Z,993.64
2017-02-23T10:09:36.738Z,993.59
2017-02-23T10:10:36.665Z,993.57
2017-02-23T10:11:36.603Z,993.55
2017-02-23T10:12:36.540Z,993.53
2017-02-23T10:13:36.480Z,993.5
2017-02-23T10:14:36.419Z,993.51
2017-02-23T10:15:36.354Z,993.49
2017-02-23T10:16:36.293Z,993.5
2017-02-23T10:17:36.232Z,993.49
2017-02-23T10:18:36.170Z,993.43
2017-02-23T10:19:36.107Z,993.38
2017-02-23T10:20:36.052Z,993.39
2017-02-23T10:21:35.983Z,993.35
2017-02-23T10:22:35.920Z,993.38
2017-02-23T10:23:35.859Z,993.32
2017-02-23T10:24:35.799Z,993.31
2017-02-23T10:25:35.736Z,993.31
2017-02-23T10:26:35.672Z,993.26
2017-02-23T10:27:35.612Z,993.24
2017-02-23T10:28:35.551Z,993.26
2017-02-23T10:29:35.488Z,993.23
2017-02-23T10:30:35.425Z,993.19
2017-02-23T10:31:35.365Z,993.31
2017-02-23T10:32:35.301Z,993.16
2017-02-23T10:33:35.241Z,993.14
2017-02-23T10:34:35.178Z,993.13
2017-02-23T10:35:35.116Z,993.25
2017-02-23T10:36:35.054Z,993.2
2017-02-23T10:37:34.992Z,993.07
2017-02-23T10:38:34.930Z,993.14
2017-02-23T10:39:34.866Z,992.97
2017-02-23T10:40:34.804Z,992.96
2017-02-23T10:41:34.744Z,992.91
2017-02-23T10:42:34.837Z,992.89
2017-02-23T10:43:34.619Z,992.87
2017-02-23T10:44:34.560Z,992.85
2017-02-23T10:45:34.496Z,992.88
2017-02-23T10:46:34.433Z,992.8
2017-02-23T10:47:34.372Z,992.79
2017-02-23T10:48:34.308Z,992.75
2017-02-23T10:49:34.247Z,992.72
2017-02-23T10:50:34.186Z,992.72
2017-02-23T10:51:34.122Z,992.68
2017-02-23T10:52:34.062Z,992.62
2017-02-23T10:53:34.001Z,992.59
2017-02-23T10:54:33.938Z,992.64
2017-02-23T10:55:33.875Z,992.61
2017-02-23T10:56:33.814Z,992.58
2017-02-23T10:57:33.852Z,992.56
2017-02-23T10:58:33.690Z,992.52
2017-02-23T10:59:33.627Z,992.49
2017-02-23T11:00:33.565Z,992.54
2017-02-23T11:01:33.506Z,992.5
2017-02-23T11:02:33.441Z,992.48
2017-02-23T11:03:33.380Z,992.41
2017-02-23T11:04:33.318Z,992.36
2017-02-23T11:05:33.256Z,992.39
2017-02-23T11:06:33.194Z,992.35
2017-02-23T11:07:33.132Z,992.4
2017-02-23T11:08:33.072Z,992.43
2017-02-23T11:09:33.008Z,992.3
2017-02-23T11:10:33.247Z,992.37
2017-02-23T11:11:32.884Z,992.41
2017-02-23T11:12:32.830Z,992.32
2017-02-23T11:13:32.761Z,992.24
2017-02-23T11:14:32.699Z,992.24
2017-02-23T11:15:32.639Z,992.27
2017-02-23T11:16:32.575Z,992.17
2017-02-23T11:17:32.512Z,992.19
2017-02-23T11:18:32.451Z,992.22
2017-02-23T11:19:32.395Z,992.25
2017-02-23T11:20:32.328Z,992.1
2017-02-23T11:21:32.292Z,992.09
2017-02-23T11:22:32.205Z,992.08
2017-02-23T11:23:32.143Z,992.07
2017-02-23T11:24:32.079Z,992.02
2017-02-23T11:25:32.018Z,991.96
2017-02-23T11:26:31.957Z,991.94
2017-02-23T11:27:31.894Z,991.98
2017-02-23T11:28:31.832Z,991.97
2017-02-23T11:29:31.770Z,991.9
2017-02-23T11:30:31.710Z,991.85
2017-02-23T11:31:31.650Z,991.73
2017-02-23T11:32:31.584Z,991.75
2017-02-23T11:33:31.523Z,991.74
2017-02-23T11:34:31.462Z,991.7
2017-02-23T11:35:31.400Z,991.61
2017-02-23T11:36:31.340Z,991.56
2017-02-23T11:37:31.277Z,991.57
2017-02-23T11:38:31.216Z,991.54
2017-02-23T11:39:31.152Z,991.54
2017-02-23T11:40:31.093Z,991.45
2017-02-23T11:41:31.030Z,991.38
2017-02-23T11:42:30.968Z,991.38
2017-02-23T11:43:30.904Z,991.32
2017-02-23T11:44:30.845Z,991.27
2017-02-23T11:45:30.780Z,991.26
2017-02-23T11:46:30.721Z,991.17
2017-02-23T11:47:30.658Z,991.11
2017-02-23T11:48:30.599Z,991.06
2017-02-23T11:49:30.535Z,991.04
2017-02-23T11:50:30.474Z,991.03
2017-02-23T11:51:30.412Z,990.98
2017-02-23T11:52:30.356Z,991.06
2017-02-23T11:53:30.288Z,991
2017-02-23T11:54:30.226Z,991
2017-02-23T11:55:30.175Z,990.98
2017-02-23T11:56:30.103Z,990.95
2017-02-23T11:57:30.040Z,990.92
2017-02-23T11:58:29.978Z,990.9
2017-02-23T11:59:29.917Z,990.91
2017-02-23T12:00:29.856Z,990.87
2017-02-23T12:01:29.793Z,990.82
2017-02-23T12:02:29.732Z,990.81
2017-02-23T12:03:29.670Z,990.75
2017-02-23T12:04:29.610Z,990.73
2017-02-23T12:05:29.546Z,990.7
2017-02-23T12:06:29.486Z,990.77
2017-02-23T12:07:29.425Z,990.74
2017-02-23T12:08:29.361Z,990.66
2017-02-23T12:09:29.299Z,990.56
2017-02-23T12:10:29.240Z,990.61
2017-02-23T12:11:29.178Z,990.56
2017-02-23T12:12:29.114Z,990.46
2017-02-23T12:13:29.055Z,990.51
2017-02-23T12:14:28.991Z,990.5
2017-02-23T12:15:28.927Z,990.36
2017-02-23T12:16:28.867Z,990.36
2017-02-23T12:17:28.806Z,990.29
2017-02-23T12:18:28.752Z,990.24
2017-02-23T12:19:28.682Z,990.2
2017-02-23T12:20:28.620Z,990.25
2017-02-23T12:21:28.561Z,990.21
2017-02-23T12:22:28.497Z,990.18
2017-02-23T12:23:28.435Z,990.17
2017-02-23T12:24:28.373Z,990.09
2017-02-23T12:25:28.313Z,989.97
2017-02-23T12:26:28.257Z,990.07
2017-02-23T12:27:28.190Z,990.11
2017-02-23T12:28:28.127Z,990.01
2017-02-23T12:29:28.124Z,989.98
2017-02-23T12:30:28.005Z,990
2017-02-23T12:31:27.942Z,989.79